createdAt,value
2024-01-03T00:00:48.724Z,8.50
2024-01-03T00:05:40.445Z,8.50
2024-01-03T00:10:42.871Z,8.50
2024-01-03T00:16:23.182Z,8.50
2024-01-03T00:21:08.378Z,8.50
2024-01-03T00:25:53.616Z,8.60
2024-01-03T00:30:43.644Z,8.80
2024-01-03T00:35:29.234Z,8.70
2024-01-03T00:40:55.089Z,8.80
2024-01-03T00:45:40.179Z,8.70
2024-01-03T00:50:25.967Z,8.70
2024-01-03T00:55:15.525Z,8.60
2024-01-03T01:00:05.100Z,8.70
2024-01-03T01:04:54.527Z,8.70
2024-01-03T01:09:53.692Z,8.80
2024-01-03T01:14:40.497Z,8.80
2024-01-03T01:19:30.304Z,8.80
2024-01-03T01:24:35.942Z,8.90
2024-01-03T01:29:26.461Z,8.90
2024-01-03T01:34:12.012Z,8.90
2024-01-03T01:39:01.657Z,8.90
2024-01-03T01:43:47.259Z,9.00
2024-01-03T01:53:43.089Z,9.10
2024-01-03T01:58:43.982Z,9.10
2024-01-03T02:03:35.638Z,9.20
2024-01-03T02:08:48.996Z,9.10
2024-01-03T02:13:55.937Z,9.10
2024-01-03T02:18:43.534Z,9.10
2024-01-03T02:23:50.045Z,9.00
2024-01-03T02:28:33.974Z,8.90
2024-01-03T02:33:23.953Z,8.90
2024-01-03T02:38:09.070Z,8.80
2024-01-03T02:42:58.131Z,8.80
2024-01-03T02:47:48.461Z,8.90
2024-01-03T02:52:36.038Z,9.00
2024-01-03T02:57:20.626Z,9.20
2024-01-03T03:02:10.784Z,9.30
2024-01-03T03:06:58.261Z,9.20
2024-01-03T03:11:47.729Z,9.20
2024-01-03T03:16:32.348Z,9.10
2024-01-03T03:21:23.529Z,9.20
2024-01-03T03:26:11.994Z,9.20
2024-01-03T03:30:56.639Z,9.10
2024-01-03T03:35:46.043Z,9.20
2024-01-03T03:40:35.012Z,9.20
2024-01-03T03:45:20.414Z,9.10
2024-01-03T03:50:40.032Z,9.10
2024-01-03T03:55:42.460Z,9.00
2024-01-03T04:00:35.120Z,9.10
2024-01-03T04:05:51.415Z,9.10
2024-01-03T04:10:44.254Z,9.00
2024-01-03T04:15:31.570Z,8.90
2024-01-03T04:20:18.599Z,9.00
2024-01-03T04:25:20.366Z,9.00
2024-01-03T04:30:25.430Z,9.00
2024-01-03T04:35:13.882Z,9.00
2024-01-03T04:40:23.093Z,9.00
2024-01-03T04:45:53.192Z,9.00
2024-01-03T04:50:42.834Z,9.00
2024-01-03T05:00:38.500Z,8.90
2024-01-03T05:05:25.742Z,8.80
2024-01-03T05:10:11.329Z,8.70
2024-01-03T05:14:56.725Z,8.70
2024-01-03T05:20:05.448Z,8.70
2024-01-03T05:24:50.856Z,8.70
2024-01-03T05:29:42.382Z,8.80
2024-01-03T05:34:29.100Z,8.80
2024-01-03T05:39:16.242Z,8.80
2024-01-03T05:44:17.713Z,8.80
2024-01-03T05:49:08.428Z,8.70
2024-01-03T05:53:55.145Z,8.80
2024-01-03T05:58:57.765Z,8.90
2024-01-03T06:03:44.621Z,8.80
2024-01-03T06:08:35.034Z,8.90
2024-01-03T06:13:24.507Z,8.90
2024-01-03T06:18:10.076Z,8.90
2024-01-03T06:23:26.198Z,8.90
2024-01-03T06:28:23.566Z,8.90
2024-01-03T06:33:23.794Z,8.70
2024-01-03T06:38:12.890Z,8.80
2024-01-03T06:42:56.700Z,8.70
2024-01-03T06:48:01.294Z,8.70
2024-01-03T06:52:50.703Z,8.60
2024-01-03T06:57:55.785Z,8.80
2024-01-03T07:02:46.529Z,8.80
2024-01-03T07:08:29.238Z,8.70
2024-01-03T07:13:27.061Z,8.50
2024-01-03T07:18:25.364Z,8.50
2024-01-03T07:23:29.356Z,8.40
2024-01-03T07:28:17.500Z,8.40
2024-01-03T07:33:07.709Z,8.60
2024-01-03T07:37:56.188Z,8.80
2024-01-03T07:42:58.419Z,8.90
2024-01-03T07:47:49.147Z,9.00
2024-01-03T07:52:32.790Z,9.00
2024-01-03T07:57:38.928Z,9.10
2024-01-03T08:02:30.663Z,8.90
2024-01-03T08:07:26.853Z,9.00
2024-01-03T08:12:18.739Z,9.00
2024-01-03T08:17:57.265Z,9.10
2024-01-03T08:22:42.961Z,9.00
2024-01-03T08:33:40.280Z,9.20
2024-01-03T08:38:28.845Z,9.50
2024-01-03T08:43:48.656Z,9.70
2024-01-03T08:49:17.780Z,9.80
2024-01-03T08:54:09.420Z,9.80
2024-01-03T08:59:00.890Z,9.70
2024-01-03T09:04:14.411Z,9.70
2024-01-03T09:09:08.998Z,9.60
2024-01-03T09:13:53.846Z,9.60
2024-01-03T09:28:49.473Z,9.90
2024-01-03T09:33:37.020Z,10.00
2024-01-03T09:38:27.272Z,10.00
2024-01-03T09:43:15.299Z,9.90
2024-01-03T09:48:35.280Z,9.80
2024-01-03T09:53:24.290Z,9.90
2024-01-03T09:58:14.803Z,9.90
2024-01-03T10:03:12.892Z,10.00
2024-01-03T10:08:15.274Z,10.00
2024-01-03T10:13:53.334Z,10.00
2024-01-03T10:19:13.894Z,10.10
2024-01-03T10:24:05.223Z,10.00
2024-01-03T10:34:53.292Z,10.40
2024-01-03T10:40:05.636Z,10.50
2024-01-03T10:44:49.552Z,10.60
2024-01-03T10:49:38.170Z,10.70
2024-01-03T10:54:27.786Z,10.70
2024-01-03T10:59:15.365Z,10.70
2024-01-03T11:04:17.911Z,10.60
2024-01-03T11:09:21.392Z,10.70
2024-01-03T11:14:26.699Z,10.90
2024-01-03T11:19:26.727Z,10.90
2024-01-03T11:25:03.600Z,10.90
2024-01-03T11:29:55.198Z,10.80
2024-01-03T11:35:14.359Z,10.80
2024-01-03T11:40:22.757Z,10.70
2024-01-03T11:45:09.320Z,10.80
2024-01-03T11:50:10.569Z,10.80
2024-01-03T12:01:05.309Z,10.90
2024-01-03T12:06:07.632Z,10.90
2024-01-03T12:11:00.685Z,10.70
2024-01-03T12:15:51.925Z,10.70
2024-01-03T12:20:48.355Z,10.80
2024-01-03T12:25:38.083Z,10.70
2024-01-03T12:30:26.804Z,10.70
2024-01-03T12:35:26.955Z,10.70
2024-01-03T12:40:37.560Z,10.90
2024-01-03T12:45:35.071Z,10.90
2024-01-03T12:50:58.408Z,10.60
2024-01-03T12:55:46.478Z,10.60
2024-01-03T13:01:04.549Z,10.40
2024-01-03T13:06:26.147Z,10.40
2024-01-03T13:11:16.567Z,10.50
2024-01-03T13:16:03.227Z,10.40
2024-01-03T13:20:53.658Z,10.30
2024-01-03T13:25:37.990Z,10.10
2024-01-03T13:30:25.337Z,10.00
2024-01-03T13:35:14.447Z,9.90
2024-01-03T13:40:02.350Z,9.60
2024-01-03T13:44:48.701Z,9.50
2024-01-03T13:49:38.142Z,9.50
2024-01-03T13:54:56.668Z,9.60
2024-01-03T13:59:45.442Z,9.50
2024-01-03T14:04:33.123Z,9.50
2024-01-03T14:09:22.645Z,9.50
2024-01-03T14:14:15.135Z,9.40
2024-01-03T14:19:13.908Z,9.40
2024-01-03T14:24:03.868Z,9.30
2024-01-03T14:28:48.481Z,9.40
2024-01-03T14:33:36.506Z,9.40
2024-01-03T14:38:23.842Z,9.50
2024-01-03T14:43:32.250Z,9.70
2024-01-03T14:48:18.581Z,9.80
2024-01-03T14:53:06.368Z,9.80
2024-01-03T14:57:55.588Z,9.80
2024-01-03T15:03:04.132Z,9.70
2024-01-03T15:08:10.120Z,9.60
2024-01-03T15:13:08.146Z,9.60
2024-01-03T15:17:52.996Z,9.50
2024-01-03T15:22:56.048Z,9.40
2024-01-03T15:27:50.129Z,9.40
2024-01-03T15:32:39.113Z,9.30
2024-01-03T15:37:43.026Z,9.30
2024-01-03T15:42:40.973Z,9.30
2024-01-03T15:47:29.497Z,9.20
2024-01-03T15:52:51.107Z,9.10
2024-01-03T15:57:37.640Z,9.00
2024-01-03T16:08:16.291Z,8.90
2024-01-03T16:13:39.470Z,8.90
2024-01-03T16:18:24.163Z,8.90
2024-01-03T16:23:18.816Z,8.80
2024-01-03T16:28:14.289Z,8.70
2024-01-03T16:33:24.994Z,8.70
2024-01-03T16:38:32.509Z,8.70
2024-01-03T16:43:28.560Z,8.70
2024-01-03T16:49:04.519Z,8.60
2024-01-03T16:53:53.443Z,8.70
2024-01-03T16:58:40.890Z,8.70
2024-01-03T17:09:27.257Z,8.80
2024-01-03T17:14:28.968Z,8.80
2024-01-03T17:19:26.540Z,8.90
2024-01-03T17:24:20.120Z,8.80
2024-01-03T17:29:19.769Z,8.80
2024-01-03T17:34:12.060Z,8.80
2024-01-03T17:38:59.612Z,8.90
2024-01-03T17:44:06.754Z,8.90
2024-01-03T17:48:55.670Z,8.90
2024-01-03T17:54:14.737Z,9.00
2024-01-03T17:59:15.179Z,8.90
2024-01-03T18:11:01.416Z,9.00
2024-01-03T18:21:33.758Z,9.00
2024-01-03T18:32:16.232Z,8.80
2024-01-03T18:37:23.171Z,8.80
2024-01-03T18:42:12.671Z,8.80
2024-01-03T18:46:58.104Z,8.90
2024-01-03T18:52:05.645Z,8.90
2024-01-03T18:56:50.765Z,8.90
2024-01-03T19:01:39.166Z,8.90
2024-01-03T19:06:28.238Z,8.70
2024-01-03T19:11:18.405Z,8.70
2024-01-03T19:21:35.443Z,8.70
2024-01-03T19:26:44.920Z,8.80
2024-01-03T19:31:29.683Z,8.70
2024-01-03T19:36:19.586Z,8.50
2024-01-03T19:41:06.208Z,8.60
2024-01-03T19:45:58.657Z,8.50
2024-01-03T19:51:19.508Z,8.50
2024-01-03T19:56:38.713Z,8.60
2024-01-03T20:18:10.692Z,8.40
2024-01-03T20:23:00.978Z,8.50
2024-01-03T20:27:47.567Z,8.60
2024-01-03T20:32:35.311Z,8.60
2024-01-03T20:37:24.652Z,8.50
2024-01-03T20:42:10.035Z,8.50
2024-01-03T20:46:59.609Z,8.60
2024-01-03T20:51:48.666Z,8.50
2024-01-03T20:56:34.730Z,8.30
2024-01-03T21:01:23.245Z,8.40
2024-01-03T21:06:12.624Z,8.50
2024-01-03T21:10:56.923Z,8.40
2024-01-03T21:15:49.635Z,8.30
2024-01-03T21:20:37.678Z,8.30
2024-01-03T21:25:23.941Z,8.40
2024-01-03T21:30:13.829Z,8.50
2024-01-03T21:34:59.881Z,8.50
2024-01-03T21:40:02.374Z,8.60
2024-01-03T21:44:52.060Z,8.70
2024-01-03T21:50:15.127Z,8.70
2024-01-03T21:55:12.377Z,8.70
2024-01-03T22:05:25.458Z,8.80
2024-01-03T22:10:13.460Z,8.80
2024-01-03T22:14:59.539Z,8.70
2024-01-03T22:20:17.383Z,8.60
2024-01-03T22:25:36.517Z,8.50
2024-01-03T22:30:29.931Z,8.50
2024-01-03T22:52:32.157Z,8.20
2024-01-03T22:57:37.252Z,8.30
2024-01-03T23:08:42.279Z,8.10
2024-01-03T23:13:32.294Z,7.90
2024-01-03T23:19:04.985Z,7.80
2024-01-03T23:30:00.050Z,7.60
2024-01-03T23:35:12.289Z,7.40
2024-01-03T23:40:08.584Z,7.30
2024-01-03T23:45:03.144Z,7.30
2024-01-03T23:50:20.529Z,7.40
